createdAt,value
2023-04-13T00:00:48.577Z,14.18
2023-04-13T00:03:18.088Z,14.20
2023-04-13T00:05:46.633Z,14.18
2023-04-13T00:08:13.920Z,14.21
2023-04-13T00:10:42.105Z,14.17
2023-04-13T00:13:09.975Z,14.18
2023-04-13T00:15:38.478Z,14.19
2023-04-13T00:18:07.254Z,14.20
2023-04-13T00:20:34.266Z,14.19
2023-04-13T00:23:01.611Z,14.17
2023-04-13T00:25:29.526Z,14.19
2023-04-13T00:27:56.537Z,14.16
2023-04-13T00:30:23.414Z,14.14
2023-04-13T00:32:50.581Z,14.15
2023-04-13T00:35:19.461Z,14.15
2023-04-13T00:37:48.563Z,14.16
2023-04-13T00:40:17.056Z,14.15
2023-04-13T00:42:45.283Z,14.12
2023-04-13T00:45:13.943Z,14.13
2023-04-13T00:47:42.444Z,14.14
2023-04-13T00:50:09.611Z,14.14
2023-04-13T00:52:38.756Z,14.14
2023-04-13T00:55:06.581Z,14.14
2023-04-13T00:57:34.585Z,14.11
2023-04-13T01:00:01.879Z,14.11
2023-04-13T01:02:28.905Z,14.10
2023-04-13T01:04:56.574Z,14.11
2023-04-13T01:07:26.861Z,14.12
2023-04-13T01:09:56.909Z,14.08
2023-04-13T01:12:26.832Z,14.09
2023-04-13T01:14:59.237Z,14.10
2023-04-13T01:17:29.288Z,14.11
2023-04-13T01:19:59.690Z,14.14
2023-04-13T01:22:29.079Z,14.10
2023-04-13T01:24:58.997Z,14.11
2023-04-13T01:27:28.955Z,14.10
2023-04-13T01:29:58.501Z,14.08
2023-04-13T01:32:26.110Z,14.11
2023-04-13T01:34:53.020Z,14.09
2023-04-13T01:37:20.078Z,14.09
2023-04-13T01:39:49.362Z,14.08
2023-04-13T01:42:16.689Z,14.11
2023-04-13T01:44:44.122Z,14.08
2023-04-13T01:47:20.720Z,14.06
2023-04-13T01:49:52.815Z,14.10
2023-04-13T01:52:21.251Z,14.07
2023-04-13T01:54:53.765Z,14.04
2023-04-13T01:57:22.670Z,14.06
2023-04-13T01:59:49.452Z,14.06
2023-04-13T02:02:17.894Z,14.04
2023-04-13T02:04:44.839Z,14.05
2023-04-13T02:07:12.776Z,14.08
2023-04-13T02:09:39.698Z,14.06
2023-04-13T02:12:06.728Z,14.06
2023-04-13T02:14:33.901Z,14.03
2023-04-13T02:17:00.858Z,14.02
2023-04-13T02:19:27.762Z,14.06
2023-04-13T02:22:00.089Z,14.03
2023-04-13T02:24:27.007Z,14.03
2023-04-13T02:26:53.919Z,14.06
2023-04-13T02:29:20.800Z,14.01
2023-04-13T02:31:47.778Z,14.00
2023-04-13T02:34:14.772Z,14.03
2023-04-13T02:36:42.529Z,14.02
2023-04-13T02:39:09.499Z,13.99
2023-04-13T02:41:36.390Z,14.00
2023-04-13T02:44:03.408Z,14.00
2023-04-13T02:46:32.654Z,13.98
2023-04-13T02:49:00.117Z,13.95
2023-04-13T02:51:28.430Z,13.99
2023-04-13T02:53:57.758Z,13.97
2023-04-13T02:56:28.664Z,13.94
2023-04-13T02:58:55.602Z,13.99
2023-04-13T03:01:25.406Z,13.98
2023-04-13T03:03:52.379Z,13.96
2023-04-13T03:06:19.355Z,13.94
2023-04-13T03:08:46.692Z,13.93
2023-04-13T03:11:13.647Z,13.96
2023-04-13T03:13:40.572Z,13.97
2023-04-13T03:16:07.788Z,13.94
2023-04-13T03:18:34.836Z,13.95
2023-04-13T03:21:02.865Z,13.94
2023-04-13T03:23:29.786Z,13.94
2023-04-13T03:25:56.746Z,13.91
2023-04-13T03:28:24.209Z,13.92
2023-04-13T03:30:51.415Z,13.94
2023-04-13T03:33:18.338Z,13.92
2023-04-13T03:35:45.308Z,13.91
2023-04-13T03:38:12.379Z,13.92
2023-04-13T03:40:39.428Z,13.92
2023-04-13T03:43:06.383Z,13.92
2023-04-13T03:45:33.668Z,13.91
2023-04-13T03:48:00.732Z,13.91
2023-04-13T03:50:29.042Z,13.94
2023-04-13T03:52:55.988Z,13.91
2023-04-13T03:55:25.277Z,13.91
2023-04-13T03:57:52.260Z,13.88
2023-04-13T04:00:22.638Z,13.89
2023-04-13T04:02:49.786Z,13.90
2023-04-13T04:05:17.398Z,13.89
2023-04-13T04:07:44.412Z,13.89
2023-04-13T04:10:11.506Z,13.92
2023-04-13T04:12:38.462Z,13.89
2023-04-13T04:15:05.870Z,13.86
2023-04-13T04:17:33.307Z,13.88
2023-04-13T04:20:00.310Z,13.86
2023-04-13T04:22:30.519Z,13.88
2023-04-13T04:25:00.539Z,13.87
2023-04-13T04:27:27.500Z,13.88
2023-04-13T04:29:59.569Z,13.86
2023-04-13T04:32:26.663Z,13.84
2023-04-13T04:34:53.583Z,13.83
2023-04-13T04:37:23.785Z,13.84
2023-04-13T04:39:53.777Z,13.84
2023-04-13T04:42:21.338Z,13.86
2023-04-13T04:44:50.488Z,13.88
2023-04-13T04:47:17.765Z,13.84
2023-04-13T04:49:44.693Z,13.85
2023-04-13T04:52:12.848Z,13.82
2023-04-13T04:54:40.836Z,13.81
2023-04-13T04:57:10.888Z,13.84
2023-04-13T04:59:37.846Z,13.79
2023-04-13T05:02:05.038Z,13.81
2023-04-13T05:04:32.024Z,13.77
2023-04-13T05:06:59.099Z,13.77
2023-04-13T05:09:26.408Z,13.79
2023-04-13T05:11:53.417Z,13.76
2023-04-13T05:14:20.399Z,13.82
2023-04-13T05:16:47.340Z,13.76
2023-04-13T05:19:14.455Z,13.78
2023-04-13T05:21:41.399Z,13.78
2023-04-13T05:24:11.812Z,13.75
2023-04-13T05:26:38.872Z,13.80
2023-04-13T05:29:07.192Z,13.75
2023-04-13T05:31:34.287Z,13.75
2023-04-13T05:34:02.147Z,13.75
2023-04-13T05:36:29.571Z,13.73
2023-04-13T05:38:58.260Z,13.74
2023-04-13T05:41:25.481Z,13.76
2023-04-13T05:43:52.381Z,13.72
2023-04-13T05:46:19.385Z,13.73
2023-04-13T05:48:46.303Z,13.75
2023-04-13T05:51:13.297Z,13.75
2023-04-13T05:53:40.198Z,13.75
2023-04-13T05:56:08.371Z,13.71
2023-04-13T05:58:35.350Z,13.72
2023-04-13T06:01:02.408Z,13.75
2023-04-13T06:03:30.250Z,13.71
2023-04-13T06:05:57.366Z,13.74
2023-04-13T06:08:34.208Z,13.73
2023-04-13T06:11:01.536Z,13.71
2023-04-13T06:13:28.457Z,13.70
2023-04-13T06:15:58.568Z,13.73
2023-04-13T06:18:27.185Z,13.70
2023-04-13T06:20:54.276Z,13.69
2023-04-13T06:23:22.198Z,13.70
2023-04-13T06:25:49.718Z,13.70
2023-04-13T06:28:17.035Z,13.69
2023-04-13T06:30:44.090Z,13.72
2023-04-13T06:33:11.756Z,13.69
2023-04-13T06:35:38.939Z,13.69
2023-04-13T06:38:05.951Z,13.71
2023-04-13T06:40:33.872Z,13.69
2023-04-13T06:43:00.983Z,13.72
2023-04-13T06:45:28.064Z,13.71
2023-04-13T06:47:55.016Z,13.68
2023-04-13T06:50:22.116Z,13.68
2023-04-13T06:52:49.600Z,13.70
2023-04-13T06:55:17.845Z,13.68
2023-04-13T06:57:45.052Z,13.69
2023-04-13T07:00:26.358Z,13.64
2023-04-13T07:02:56.000Z,13.66
2023-04-13T07:05:23.054Z,13.61
2023-04-13T07:07:50.149Z,13.65
2023-04-13T07:10:17.203Z,13.66
2023-04-13T07:12:44.252Z,13.65
2023-04-13T07:15:11.383Z,13.68
2023-04-13T07:17:41.415Z,13.66
2023-04-13T07:20:09.868Z,13.64
2023-04-13T07:22:37.071Z,13.64
2023-04-13T07:25:04.548Z,13.65
2023-04-13T07:27:33.542Z,13.65
2023-04-13T07:30:01.616Z,13.62
2023-04-13T07:32:31.506Z,13.63
2023-04-13T07:35:02.264Z,13.59
2023-04-13T07:37:30.124Z,13.60
2023-04-13T07:39:57.243Z,13.61
2023-04-13T07:42:25.189Z,13.62
2023-04-13T07:44:55.428Z,13.60
2023-04-13T07:47:22.505Z,13.61
2023-04-13T07:49:52.748Z,13.62
2023-04-13T07:52:20.498Z,13.62
2023-04-13T07:54:47.591Z,13.61
2023-04-13T07:57:14.643Z,13.59
2023-04-13T07:59:41.696Z,13.62
2023-04-13T08:02:08.762Z,13.60
2023-04-13T08:04:36.537Z,13.63
2023-04-13T08:07:04.444Z,13.60
2023-04-13T08:09:33.191Z,13.62
2023-04-13T08:12:00.245Z,13.61
2023-04-13T08:14:27.309Z,13.57
2023-04-13T08:16:54.560Z,13.60
2023-04-13T08:19:24.610Z,13.59
2023-04-13T08:21:52.908Z,13.62
2023-04-13T08:24:21.251Z,13.60
2023-04-13T08:26:48.313Z,13.60
2023-04-13T08:29:17.560Z,13.65
2023-04-13T08:31:44.596Z,13.63
2023-04-13T08:34:12.513Z,13.63
2023-04-13T08:36:41.732Z,13.63
2023-04-13T08:39:10.663Z,13.63
2023-04-13T08:41:41.080Z,13.65
2023-04-13T08:44:09.124Z,13.63
2023-04-13T08:46:37.203Z,13.64
2023-04-13T08:49:04.733Z,13.65
2023-04-13T08:51:33.041Z,13.63
2023-04-13T08:54:00.371Z,13.66
2023-04-13T08:56:42.152Z,13.64
2023-04-13T08:59:13.468Z,13.64
2023-04-13T09:01:41.029Z,13.64
2023-04-13T09:04:09.287Z,13.65
2023-04-13T09:06:40.286Z,13.67
2023-04-13T09:09:09.332Z,13.69
2023-04-13T09:11:36.759Z,13.68
2023-04-13T09:14:03.756Z,13.70
2023-04-13T09:16:31.380Z,13.72
2023-04-13T09:18:58.934Z,13.71
2023-04-13T09:21:37.017Z,13.71
2023-04-13T09:24:04.208Z,13.72
2023-04-13T09:26:39.917Z,13.72
2023-04-13T09:29:09.615Z,13.75
2023-04-13T09:31:38.930Z,13.79
2023-04-13T09:34:06.438Z,13.75
2023-04-13T09:36:33.840Z,13.77
2023-04-13T09:39:00.962Z,13.77
2023-04-13T09:41:30.679Z,13.78
2023-04-13T09:43:58.185Z,13.79
2023-04-13T09:46:25.283Z,13.81
2023-04-13T09:49:01.862Z,13.84
2023-04-13T09:51:37.712Z,13.85
2023-04-13T09:54:06.304Z,13.88
2023-04-13T09:56:42.389Z,13.89
2023-04-13T09:59:10.097Z,13.93
2023-04-13T10:01:37.862Z,13.97
2023-04-13T10:04:06.524Z,13.99
2023-04-13T10:06:38.965Z,14.00
2023-04-13T10:09:06.402Z,13.98
2023-04-13T10:11:40.228Z,13.98
2023-04-13T10:14:12.544Z,14.00
2023-04-13T10:16:40.797Z,14.02
2023-04-13T10:19:12.897Z,14.06
2023-04-13T10:21:41.515Z,14.08
2023-04-13T10:24:11.728Z,14.11
2023-04-13T10:26:40.025Z,14.15
2023-04-13T10:29:08.366Z,14.18
2023-04-13T10:31:38.387Z,14.23
2023-04-13T10:34:08.275Z,14.30
2023-04-13T10:36:42.117Z,14.32
2023-04-13T10:39:10.947Z,14.34
2023-04-13T10:41:38.461Z,14.37
2023-04-13T10:44:06.826Z,14.42
2023-04-13T10:46:35.475Z,14.44
2023-04-13T10:49:03.451Z,14.49
2023-04-13T10:51:39.697Z,14.54
2023-04-13T10:54:07.278Z,14.55
2023-04-13T10:56:34.510Z,14.55
2023-04-13T10:59:01.630Z,14.54
2023-04-13T11:01:30.920Z,14.50
2023-04-13T11:04:05.111Z,14.43
2023-04-13T11:06:38.582Z,14.39
2023-04-13T11:09:14.309Z,14.43
2023-04-13T11:11:42.357Z,14.48
2023-04-13T11:14:09.414Z,14.51
2023-04-13T11:16:47.298Z,14.57
2023-04-13T11:19:15.561Z,14.61
2023-04-13T11:21:45.297Z,14.62
2023-04-13T11:24:12.426Z,14.58
2023-04-13T11:26:39.487Z,14.67
2023-04-13T11:29:06.570Z,14.63
2023-04-13T11:31:37.910Z,14.72
2023-04-13T11:34:06.322Z,14.73
2023-04-13T11:36:33.992Z,14.80
2023-04-13T11:39:02.326Z,14.78
2023-04-13T11:41:30.498Z,14.74
2023-04-13T11:43:57.703Z,14.74
2023-04-13T11:46:26.118Z,14.71
2023-04-13T11:48:53.394Z,14.68
2023-04-13T11:51:21.512Z,14.73
2023-04-13T11:53:49.678Z,14.74
2023-04-13T11:56:19.852Z,14.75
2023-04-13T11:58:50.199Z,14.77
2023-04-13T12:01:25.125Z,14.82
2023-04-13T12:04:15.088Z,14.85
2023-04-13T12:06:46.206Z,14.85
2023-04-13T12:09:16.835Z,14.79
2023-04-13T12:11:50.092Z,14.75
2023-04-13T12:19:28.633Z,14.67
2023-04-13T12:21:57.990Z,14.67
2023-04-13T12:24:37.909Z,14.64
2023-04-13T12:29:37.635Z,14.69
2023-04-13T12:32:09.331Z,14.71
2023-04-13T12:34:37.020Z,14.69
2023-04-13T12:37:04.811Z,14.70
2023-04-13T12:39:32.287Z,14.68
2023-04-13T12:41:59.286Z,14.72
2023-04-13T12:44:26.402Z,14.71
2023-04-13T12:46:53.433Z,14.68
2023-04-13T12:49:20.684Z,14.69
2023-04-13T12:51:47.730Z,14.67
2023-04-13T12:54:25.343Z,14.68
2023-04-13T12:56:52.647Z,14.68
2023-04-13T12:59:22.515Z,14.71
2023-04-13T13:01:49.960Z,14.74
2023-04-13T13:04:17.344Z,14.76
2023-04-13T13:06:44.369Z,14.71
2023-04-13T13:09:11.535Z,14.73
2023-04-13T13:11:39.085Z,14.72
2023-04-13T13:14:07.386Z,14.71
2023-04-13T13:16:35.841Z,14.74
2023-04-13T13:19:05.366Z,14.74
2023-04-13T13:21:32.880Z,14.73
2023-04-13T13:23:59.842Z,14.76
2023-04-13T13:26:30.616Z,14.74
2023-04-13T13:29:07.565Z,14.75
2023-04-13T13:31:34.635Z,14.77
2023-04-13T13:34:01.860Z,14.77
2023-04-13T13:36:31.107Z,14.79
2023-04-13T13:39:00.266Z,14.79
2023-04-13T13:41:27.740Z,14.79
2023-04-13T13:43:54.661Z,14.80
2023-04-13T13:46:21.857Z,14.81
2023-04-13T13:48:48.918Z,14.80
2023-04-13T13:51:16.352Z,14.82
2023-04-13T13:53:43.412Z,14.84
2023-04-13T13:56:10.437Z,14.83
2023-04-13T13:58:37.470Z,14.83
2023-04-13T14:01:08.375Z,14.81
2023-04-13T14:03:35.580Z,14.85
2023-04-13T14:06:03.040Z,14.87
2023-04-13T14:08:30.016Z,14.85
2023-04-13T14:10:57.405Z,14.84
2023-04-13T14:13:24.417Z,14.82
2023-04-13T14:15:51.729Z,14.83
2023-04-13T14:18:18.864Z,14.86
2023-04-13T14:20:45.924Z,14.81
2023-04-13T14:23:13.127Z,14.81
2023-04-13T14:25:41.648Z,14.81
2023-04-13T14:28:09.639Z,14.81
2023-04-13T14:30:36.688Z,14.80
2023-04-13T14:33:04.504Z,14.80
2023-04-13T14:35:31.956Z,14.79
2023-04-13T14:38:05.468Z,14.81
2023-04-13T14:40:33.124Z,14.79
2023-04-13T14:43:00.188Z,14.75
2023-04-13T14:45:28.217Z,14.74
2023-04-13T14:47:55.227Z,14.76
2023-04-13T14:50:22.733Z,14.73
2023-04-13T14:52:52.847Z,14.74
2023-04-13T14:55:20.201Z,14.73
2023-04-13T14:57:47.515Z,14.71
2023-04-13T15:00:18.407Z,14.72
2023-04-13T15:02:45.672Z,14.71
2023-04-13T15:05:13.208Z,14.71
2023-04-13T15:07:40.746Z,14.70
2023-04-13T15:10:08.935Z,14.69
2023-04-13T15:12:35.962Z,14.71
2023-04-13T15:15:02.994Z,14.71
2023-04-13T15:17:30.248Z,14.71
2023-04-13T15:19:57.238Z,14.71
2023-04-13T15:22:24.305Z,14.72
2023-04-13T15:24:51.360Z,14.72
2023-04-13T15:27:18.348Z,14.74
2023-04-13T15:29:45.298Z,14.77
2023-04-13T15:32:12.239Z,14.76
2023-04-13T15:34:40.805Z,14.75
2023-04-13T15:37:07.677Z,14.76
2023-04-13T15:39:34.571Z,14.77
2023-04-13T15:42:02.604Z,14.76
2023-04-13T15:44:29.618Z,14.77
2023-04-13T15:46:56.535Z,14.76
2023-04-13T15:49:23.626Z,14.79
2023-04-13T15:51:50.499Z,14.77
2023-04-13T15:54:18.223Z,14.77
2023-04-13T15:56:45.170Z,14.76
2023-04-13T15:59:12.145Z,14.79
2023-04-13T16:01:48.882Z,14.82
2023-04-13T16:04:16.350Z,14.77
2023-04-13T16:06:43.496Z,14.81
2023-04-13T16:09:10.398Z,14.83
2023-04-13T16:11:39.113Z,14.79
2023-04-13T16:14:09.633Z,14.72
2023-04-13T16:16:46.152Z,14.71
2023-04-13T16:19:14.084Z,14.71
2023-04-13T16:21:43.797Z,14.70
2023-04-13T16:24:11.109Z,14.72
2023-04-13T16:26:38.310Z,14.73
2023-04-13T16:29:05.637Z,14.73
2023-04-13T16:31:32.759Z,14.74
2023-04-13T16:33:59.774Z,14.75
2023-04-13T16:36:27.682Z,14.77
2023-04-13T16:38:54.733Z,14.78
2023-04-13T16:41:21.710Z,14.77
2023-04-13T16:43:48.724Z,14.80
2023-04-13T16:46:16.661Z,14.78
2023-04-13T16:48:44.291Z,14.81
2023-04-13T16:51:11.305Z,14.75
2023-04-13T16:53:41.013Z,14.74
2023-04-13T16:56:08.050Z,14.74
2023-04-13T16:58:35.026Z,14.69
2023-04-13T17:01:02.055Z,14.71
2023-04-13T17:03:29.885Z,14.69
2023-04-13T17:05:57.167Z,14.69
2023-04-13T17:08:24.403Z,14.68
2023-04-13T17:10:52.953Z,14.70
2023-04-13T17:13:20.000Z,14.71
2023-04-13T17:15:47.011Z,14.66
2023-04-13T17:18:14.348Z,14.65
2023-04-13T17:20:41.488Z,14.64
2023-04-13T17:23:09.034Z,14.62
2023-04-13T17:25:41.414Z,14.65
2023-04-13T17:28:09.434Z,14.63
2023-04-13T17:30:37.030Z,14.63
2023-04-13T17:33:05.359Z,14.62
2023-04-13T17:35:32.376Z,14.61
2023-04-13T17:37:59.234Z,14.60
2023-04-13T17:40:26.642Z,14.59
2023-04-13T17:42:53.646Z,14.58
2023-04-13T17:45:23.167Z,14.57
2023-04-13T17:47:50.109Z,14.58
2023-04-13T17:50:17.183Z,14.58
2023-04-13T17:52:44.346Z,14.58
2023-04-13T17:55:11.350Z,14.59
2023-04-13T17:57:38.520Z,14.59
2023-04-13T18:00:05.899Z,14.59
2023-04-13T18:02:33.004Z,14.57
2023-04-13T18:05:00.042Z,14.54
2023-04-13T18:07:27.172Z,14.55
2023-04-13T18:09:54.296Z,14.53
2023-04-13T18:12:21.332Z,14.55
2023-04-13T18:14:48.339Z,14.55
2023-04-13T18:17:15.557Z,14.55
2023-04-13T18:19:43.028Z,14.58
2023-04-13T18:22:10.113Z,14.53
2023-04-13T18:24:37.097Z,14.54
2023-04-13T18:27:04.101Z,14.54
2023-04-13T18:29:31.337Z,14.52
2023-04-13T18:31:58.361Z,14.57
2023-04-13T18:34:25.522Z,14.56
2023-04-13T18:36:52.448Z,14.54
2023-04-13T18:39:19.759Z,14.53
2023-04-13T18:41:47.587Z,14.53
2023-04-13T18:44:14.620Z,14.53
2023-04-13T18:46:41.688Z,14.54
2023-04-13T18:49:11.650Z,14.52
2023-04-13T18:51:38.994Z,14.56
2023-04-13T18:54:06.254Z,14.55
2023-04-13T18:56:33.257Z,14.57
2023-04-13T18:59:00.121Z,14.55
2023-04-13T19:01:27.255Z,14.54
2023-04-13T19:03:54.560Z,14.54
2023-04-13T19:06:21.754Z,14.53
2023-04-13T19:08:48.601Z,14.55
2023-04-13T19:11:17.949Z,14.55
2023-04-13T19:13:46.603Z,14.51
2023-04-13T19:16:14.314Z,14.51
2023-04-13T19:18:41.441Z,14.52
2023-04-13T19:21:08.596Z,14.52
2023-04-13T19:23:36.601Z,14.50
2023-04-13T19:26:05.855Z,14.49
2023-04-13T19:28:32.756Z,14.52
2023-04-13T19:31:00.041Z,14.52
2023-04-13T19:33:29.249Z,14.51
2023-04-13T19:35:56.374Z,14.49
2023-04-13T19:38:23.242Z,14.50
2023-04-13T19:40:50.134Z,14.46
2023-04-13T19:43:21.064Z,14.48
2023-04-13T19:45:48.296Z,14.48
2023-04-13T19:48:15.397Z,14.47
2023-04-13T19:50:42.317Z,14.47
2023-04-13T19:53:09.204Z,14.50
2023-04-13T19:55:36.666Z,14.50
2023-04-13T19:58:03.847Z,14.50
2023-04-13T20:00:30.971Z,14.49
2023-04-13T20:03:03.570Z,14.49
2023-04-13T20:05:30.861Z,14.49
2023-04-13T20:07:58.013Z,14.52
2023-04-13T20:10:25.062Z,14.52
2023-04-13T20:12:51.985Z,14.50
2023-04-13T20:15:19.156Z,14.48
2023-04-13T20:17:48.381Z,14.49
2023-04-13T20:20:18.340Z,14.48
2023-04-13T20:22:46.425Z,14.49
2023-04-13T20:25:13.483Z,14.50
2023-04-13T20:27:42.395Z,14.48
2023-04-13T20:30:10.316Z,14.48
2023-04-13T20:32:37.495Z,14.49
2023-04-13T20:35:06.540Z,14.48
2023-04-13T20:37:33.547Z,14.46
2023-04-13T20:40:00.999Z,14.48
2023-04-13T20:42:27.996Z,14.43
2023-04-13T20:44:58.049Z,14.47
2023-04-13T20:47:25.843Z,14.45
2023-04-13T20:49:54.861Z,14.43
2023-04-13T20:52:23.003Z,14.43
2023-04-13T20:54:51.071Z,14.41
2023-04-13T20:57:19.461Z,14.43
2023-04-13T20:59:46.598Z,14.42
2023-04-13T21:02:15.123Z,14.39
2023-04-13T21:04:42.466Z,14.42
2023-04-13T21:07:11.392Z,14.39
2023-04-13T21:09:38.595Z,14.39
2023-04-13T21:12:05.514Z,14.40
2023-04-13T21:14:32.598Z,14.41
2023-04-13T21:16:59.486Z,14.38
2023-04-13T21:19:26.377Z,14.40
2023-04-13T21:21:53.996Z,14.39
2023-04-13T21:24:20.892Z,14.37
2023-04-13T21:26:47.816Z,14.37
2023-04-13T21:29:16.653Z,14.33
2023-04-13T21:31:43.625Z,14.32
2023-04-13T21:34:10.488Z,14.34
2023-04-13T21:39:07.151Z,14.33
2023-04-13T21:41:34.007Z,14.37
2023-04-13T21:44:01.420Z,14.34
2023-04-13T21:46:28.643Z,14.37
2023-04-13T21:48:55.804Z,14.34
2023-04-13T21:51:22.753Z,14.35
2023-04-13T21:53:52.669Z,14.31
2023-04-13T21:56:19.530Z,14.34
2023-04-13T21:58:46.398Z,14.34
2023-04-13T22:01:13.907Z,14.34
2023-04-13T22:03:42.013Z,14.35
2023-04-13T22:06:10.307Z,14.34
2023-04-13T22:08:37.660Z,14.30
2023-04-13T22:11:04.797Z,14.30
2023-04-13T22:13:31.733Z,14.32
2023-04-13T22:16:00.989Z,14.33
2023-04-13T22:18:28.091Z,14.29
2023-04-13T22:20:54.901Z,14.34
2023-04-13T22:23:21.728Z,14.31
2023-04-13T22:25:53.780Z,14.28
2023-04-13T22:28:21.232Z,14.32
2023-04-13T22:30:48.152Z,14.29
2023-04-13T22:33:15.565Z,14.30
2023-04-13T22:35:42.443Z,14.29
2023-04-13T22:38:09.338Z,14.28
2023-04-13T22:40:38.089Z,14.26
2023-04-13T22:43:05.548Z,14.25
2023-04-13T22:45:32.391Z,14.25
2023-04-13T22:47:59.280Z,14.30
2023-04-13T22:50:26.097Z,14.30
2023-04-13T22:52:54.447Z,14.26
2023-04-13T22:55:21.630Z,14.26
2023-04-13T22:57:50.918Z,14.24
2023-04-13T23:00:20.898Z,14.26
2023-04-13T23:02:50.781Z,14.20
2023-04-13T23:05:17.881Z,14.24
2023-04-13T23:07:44.728Z,14.25
2023-04-13T23:10:11.588Z,14.27
2023-04-13T23:12:38.378Z,14.25
2023-04-13T23:15:05.601Z,14.26
2023-04-13T23:17:32.522Z,14.27
2023-04-13T23:19:59.438Z,14.23
2023-04-13T23:22:26.244Z,14.22
2023-04-13T23:24:55.423Z,14.23
2023-04-13T23:27:22.208Z,14.23
2023-04-13T23:29:49.757Z,14.23
2023-04-13T23:32:16.717Z,14.22
2023-04-13T23:34:43.589Z,14.19
2023-04-13T23:37:10.389Z,14.20
2023-04-13T23:39:37.906Z,14.21
2023-04-13T23:42:04.912Z,14.24
2023-04-13T23:44:31.735Z,14.20
2023-04-13T23:46:58.608Z,14.20
2023-04-13T23:49:25.424Z,14.19
2023-04-13T23:51:52.188Z,14.19
2023-04-13T23:54:19.143Z,14.21
2023-04-13T23:56:46.054Z,14.24
2023-04-13T23:59:16.302Z,14.23
